createdAt,value
2018-10-06T00:00:12.212Z,3.00
2018-10-06T00:05:15.644Z,3.00
2018-10-06T00:10:19.072Z,2.50
2018-10-06T00:15:22.528Z,3.00
2018-10-06T00:20:25.972Z,3.00
2018-10-06T00:25:29.389Z,3.00
2018-10-06T00:30:32.812Z,2.00
2018-10-06T00:35:36.257Z,3.75
2018-10-06T00:40:39.697Z,2.00
2018-10-06T00:45:43.114Z,3.50
2018-10-06T00:50:46.533Z,2.00
2018-10-06T00:55:49.959Z,3.00
2018-10-06T01:00:53.384Z,3.00
2018-10-06T01:05:56.800Z,2.40
2018-10-06T01:11:00.222Z,4.00
2018-10-06T01:16:03.656Z,3.00
2018-10-06T01:21:07.185Z,2.25
2018-10-06T01:26:10.606Z,2.00
2018-10-06T01:31:14.069Z,3.00
2018-10-06T01:36:17.488Z,3.00
2018-10-06T01:41:20.930Z,2.75
2018-10-06T01:46:24.352Z,2.00
2018-10-06T01:51:27.845Z,2.00
2018-10-06T01:56:31.262Z,2.00
2018-10-06T02:01:34.677Z,2.00
2018-10-06T02:06:38.134Z,2.25
2018-10-06T02:11:41.541Z,2.00
2018-10-06T02:16:45.049Z,2.80
2018-10-06T02:21:48.526Z,2.00
2018-10-06T02:26:51.951Z,2.00
2018-10-06T02:31:55.416Z,3.00
2018-10-06T02:36:59.003Z,3.00
2018-10-06T02:42:02.365Z,2.00
2018-10-06T02:47:05.876Z,1.75
2018-10-06T02:52:09.327Z,2.00
2018-10-06T02:57:12.777Z,2.00
2018-10-06T03:02:16.211Z,2.00
2018-10-06T03:07:19.637Z,2.00
2018-10-06T03:12:23.088Z,1.20
2018-10-06T03:17:26.505Z,1.75
2018-10-06T03:22:29.965Z,2.00
2018-10-06T03:27:33.387Z,2.00
2018-10-06T03:32:35.900Z,2.60
2018-10-06T03:37:39.393Z,2.00
2018-10-06T03:42:42.836Z,1.75
2018-10-06T03:47:46.272Z,2.00
2018-10-06T03:52:49.736Z,2.00
2018-10-06T03:57:53.141Z,2.00
2018-10-06T04:02:56.541Z,1.00
2018-10-06T04:07:59.950Z,3.00
2018-10-06T04:13:03.370Z,1.25
2018-10-06T04:18:07.091Z,2.50
2018-10-06T04:23:10.506Z,3.00
2018-10-06T04:28:14.025Z,3.00
2018-10-06T04:33:17.426Z,2.25
2018-10-06T04:38:21.549Z,2.00
2018-10-06T04:43:25.043Z,2.80
2018-10-06T04:48:28.648Z,3.00
2018-10-06T04:53:32.125Z,2.80
2018-10-06T04:58:35.599Z,2.00
2018-10-06T05:03:39.047Z,2.80
2018-10-06T05:08:42.489Z,2.75
2018-10-06T05:13:46.188Z,2.00
2018-10-06T05:18:49.746Z,2.00
2018-10-06T05:23:53.170Z,2.00
2018-10-06T05:28:56.604Z,2.00
2018-10-06T05:34:00.111Z,2.00
2018-10-06T05:39:04.205Z,2.00
2018-10-06T05:44:07.654Z,2.00
2018-10-06T05:49:11.721Z,2.00
2018-10-06T05:54:16.064Z,2.00
2018-10-06T05:59:19.497Z,3.00
2018-10-06T06:04:23.012Z,2.20
2018-10-06T06:09:26.502Z,2.00
2018-10-06T06:14:29.969Z,3.00
2018-10-06T06:19:33.603Z,2.50
2018-10-06T06:24:37.047Z,2.00
2018-10-06T06:29:40.569Z,3.00
2018-10-06T06:34:44.085Z,2.00
2018-10-06T06:39:47.535Z,3.00
2018-10-06T06:44:50.975Z,2.00
2018-10-06T06:49:54.387Z,2.75
2018-10-06T06:54:57.833Z,2.00
2018-10-06T07:00:01.321Z,2.00
2018-10-06T07:05:05.328Z,5.00
2018-10-06T07:10:08.783Z,14.20
2018-10-06T07:15:12.222Z,14.00
2018-10-06T07:20:15.744Z,13.60
2018-10-06T07:25:19.317Z,13.25
2018-10-06T07:30:22.824Z,16.00
2018-10-06T07:35:26.311Z,15.75
2018-10-06T07:40:29.815Z,15.20
2018-10-06T07:45:33.271Z,16.00
2018-10-06T07:50:36.720Z,12.20
2018-10-06T07:55:40.337Z,15.00
2018-10-06T08:00:43.928Z,13.80
2018-10-06T08:05:48.097Z,13.00
2018-10-06T08:10:51.597Z,12.00
2018-10-06T08:15:55.065Z,15.50
2018-10-06T08:20:59.228Z,15.80
2018-10-06T08:26:03.203Z,13.00
2018-10-06T08:31:06.996Z,16.00
2018-10-06T08:36:10.432Z,13.50
2018-10-06T08:41:14.215Z,13.40
2018-10-06T08:46:17.922Z,16.00
2018-10-06T08:51:21.357Z,16.25
2018-10-06T08:56:25.313Z,16.00
2018-10-06T09:01:28.730Z,16.00
2018-10-06T09:06:32.409Z,13.00
2018-10-06T09:11:36.252Z,15.25
2018-10-06T09:16:39.716Z,13.25
2018-10-06T09:21:43.161Z,16.00
2018-10-06T09:26:46.742Z,15.50
2018-10-06T09:31:50.165Z,16.00
2018-10-06T09:36:53.607Z,14.50
2018-10-06T09:41:57.155Z,13.00
2018-10-06T09:47:00.533Z,12.75
2018-10-06T09:52:03.991Z,12.50
2018-10-06T09:57:07.528Z,12.25
2018-10-06T10:02:15.107Z,12.00
2018-10-06T10:07:18.576Z,12.00
2018-10-06T10:12:22.028Z,10.25
2018-10-06T10:17:25.711Z,11.50
2018-10-06T10:22:29.269Z,12.75
2018-10-06T10:27:32.618Z,11.50
2018-10-06T10:32:36.176Z,12.80
2018-10-06T10:37:39.717Z,12.00
2018-10-06T10:42:43.275Z,9.60
2018-10-06T10:47:46.693Z,12.00
2018-10-06T10:52:50.178Z,11.50
2018-10-06T10:57:53.761Z,12.00
2018-10-06T11:02:57.194Z,10.40
2018-10-06T11:08:00.629Z,8.50
2018-10-06T11:13:04.218Z,10.00
2018-10-06T11:18:07.673Z,11.00
2018-10-06T11:23:11.104Z,9.00
2018-10-06T11:28:14.709Z,9.75
2018-10-06T11:33:18.134Z,8.50
2018-10-06T11:38:21.613Z,9.75
2018-10-06T11:43:25.063Z,9.25
2018-10-06T11:48:28.512Z,10.00
2018-10-06T11:53:32.110Z,11.00
2018-10-06T11:58:35.597Z,9.50
2018-10-06T12:03:39.093Z,10.00
2018-10-06T12:08:42.545Z,10.00
2018-10-06T12:13:46.114Z,8.60
2018-10-06T12:18:49.561Z,9.00
2018-10-06T12:23:52.999Z,11.00
2018-10-06T12:28:56.452Z,9.00
2018-10-06T12:33:59.928Z,9.00
2018-10-06T12:39:04.098Z,10.25
2018-10-06T12:44:07.529Z,9.20
2018-10-06T12:49:10.981Z,9.75
2018-10-06T12:54:14.639Z,8.20
2018-10-06T12:59:18.082Z,8.75
2018-10-06T13:04:21.527Z,8.00
2018-10-06T13:09:24.968Z,9.50
2018-10-06T13:14:28.414Z,9.00
2018-10-06T13:19:31.922Z,9.00
2018-10-06T13:24:35.349Z,7.75
2018-10-06T13:29:38.792Z,8.25
2018-10-06T13:34:42.237Z,8.00
2018-10-06T13:39:45.684Z,8.00
2018-10-06T13:44:49.388Z,8.20
2018-10-06T13:49:53.014Z,7.50
2018-10-06T13:54:56.469Z,8.00
2018-10-06T13:59:59.937Z,7.40
2018-10-06T14:05:03.574Z,9.00
2018-10-06T14:10:07.080Z,7.20
2018-10-06T14:15:10.553Z,7.40
2018-10-06T14:20:14.020Z,8.00
2018-10-06T14:25:17.466Z,8.40
2018-10-06T14:30:20.906Z,7.80
2018-10-06T14:35:24.614Z,7.75
2018-10-06T14:40:28.065Z,8.00
2018-10-06T14:45:31.592Z,8.00
2018-10-06T14:50:35.059Z,8.00
2018-10-06T14:55:38.533Z,8.25
2018-10-06T15:00:44.657Z,7.60
2018-10-06T15:05:48.106Z,8.00
2018-10-06T15:10:51.535Z,9.00
2018-10-06T15:15:55.524Z,7.80
2018-10-06T15:20:59.203Z,7.20
2018-10-06T15:26:03.007Z,9.00
2018-10-06T15:31:06.501Z,8.00
2018-10-06T15:36:09.988Z,8.40
2018-10-06T15:41:14.345Z,8.50
2018-10-06T15:46:17.781Z,7.75
2018-10-06T15:51:22.202Z,8.00
2018-10-06T15:56:25.805Z,10.00
2018-10-06T16:01:31.616Z,9.00
2018-10-06T16:06:35.077Z,9.00
2018-10-06T16:11:38.569Z,9.20
2018-10-06T16:16:43.135Z,9.40
2018-10-06T16:21:46.592Z,8.50
2018-10-06T16:26:50.031Z,9.00
2018-10-06T16:31:53.500Z,7.50
2018-10-06T16:36:56.979Z,9.25
2018-10-06T16:42:00.417Z,9.00
2018-10-06T16:47:03.846Z,9.00
2018-10-06T16:52:07.277Z,8.75
2018-10-06T16:57:10.785Z,12.00
2018-10-06T17:02:14.255Z,12.75
2018-10-06T17:07:17.701Z,12.50
2018-10-06T17:12:21.208Z,9.75
2018-10-06T17:17:24.598Z,10.00
2018-10-06T17:22:28.097Z,9.60
2018-10-06T17:27:31.589Z,11.00
2018-10-06T17:32:35.073Z,13.00
2018-10-06T17:37:38.501Z,15.00
2018-10-06T17:42:41.994Z,15.80
2018-10-06T17:47:45.443Z,14.00
2018-10-06T17:52:48.880Z,13.80
2018-10-06T17:57:52.423Z,13.00
2018-10-06T18:02:56.083Z,14.00
2018-10-06T18:07:59.505Z,13.50
2018-10-06T18:13:03.055Z,10.80
2018-10-06T18:18:06.873Z,12.25
2018-10-06T18:23:10.328Z,10.00
2018-10-06T18:28:14.034Z,13.00
2018-10-06T18:33:17.499Z,13.00
2018-10-06T18:38:21.125Z,12.60
2018-10-06T18:43:24.973Z,14.00
2018-10-06T18:48:28.533Z,13.00
2018-10-06T18:53:32.160Z,13.80
2018-10-06T18:58:35.658Z,13.00
2018-10-06T19:03:39.305Z,12.80
2018-10-06T19:08:42.599Z,12.50
2018-10-06T19:13:46.051Z,13.00
2018-10-06T19:18:49.496Z,12.00
2018-10-06T19:23:52.976Z,14.00
2018-10-06T19:28:56.459Z,12.25
2018-10-06T19:33:59.956Z,13.00
2018-10-06T19:39:03.553Z,13.00
2018-10-06T19:44:06.989Z,11.00
2018-10-06T19:49:10.417Z,11.50
2018-10-06T19:54:13.869Z,11.40
2018-10-06T19:59:17.329Z,10.00
2018-10-06T20:04:20.877Z,10.60
2018-10-06T20:09:24.332Z,10.40
2018-10-06T20:14:27.787Z,11.00
2018-10-06T20:19:31.252Z,11.20
2018-10-06T20:24:34.787Z,10.75
2018-10-06T20:29:38.437Z,11.00
2018-10-06T20:34:41.908Z,13.50
2018-10-06T20:39:45.433Z,11.00
2018-10-06T20:44:48.931Z,11.60
2018-10-06T20:49:52.394Z,12.00
2018-10-06T20:54:55.856Z,12.00
2018-10-06T20:59:59.311Z,10.00
2018-10-06T21:05:02.805Z,11.50
2018-10-06T21:10:06.241Z,10.40
2018-10-06T21:15:09.711Z,13.60
2018-10-06T21:20:13.191Z,11.00
2018-10-06T21:25:16.691Z,13.20
2018-10-06T21:30:20.134Z,12.75
2018-10-06T21:35:23.581Z,13.50
2018-10-06T21:40:27.072Z,12.50
2018-10-06T21:45:30.553Z,13.75
2018-10-06T21:50:34.005Z,14.00
2018-10-06T21:55:37.442Z,14.00
2018-10-06T22:00:40.952Z,14.60
2018-10-06T22:05:44.392Z,13.50
2018-10-06T22:10:47.872Z,14.25
2018-10-06T22:15:51.344Z,15.00
2018-10-06T22:20:54.825Z,14.75
2018-10-06T22:25:58.283Z,16.00
2018-10-06T22:31:01.715Z,15.20
2018-10-06T22:36:05.164Z,14.75
2018-10-06T22:41:08.639Z,14.00
2018-10-06T22:46:12.109Z,15.75
2018-10-06T22:51:15.595Z,14.00
2018-10-06T22:56:19.030Z,13.00
2018-10-06T23:01:22.475Z,15.00
2018-10-06T23:06:26.038Z,15.00
2018-10-06T23:11:29.505Z,15.00
2018-10-06T23:16:32.960Z,15.00
2018-10-06T23:21:36.402Z,14.25
2018-10-06T23:26:39.907Z,14.00
2018-10-06T23:31:43.384Z,15.50
2018-10-06T23:36:46.938Z,15.00
2018-10-06T23:41:50.435Z,15.00
2018-10-06T23:46:53.925Z,14.40
2018-10-06T23:51:57.419Z,15.25
2018-10-06T23:57:00.894Z,15.60
